createdAt,value
2018-05-07T00:00:40.763Z,101155.91
2018-05-07T00:01:43.248Z,101156.72
2018-05-07T00:02:45.781Z,101153.14
2018-05-07T00:03:48.345Z,101159.88
2018-05-07T00:04:50.908Z,101159.48
2018-05-07T00:05:53.529Z,101161.67
2018-05-07T00:06:55.958Z,101160.86
2018-05-07T00:07:58.483Z,101158.91
2018-05-07T00:09:00.954Z,101159.31
2018-05-07T00:10:03.463Z,101152.41
2018-05-07T00:11:05.986Z,101154.19
2018-05-07T00:12:08.473Z,101145.50
2018-05-07T00:13:10.979Z,101147.28
2018-05-07T00:14:13.468Z,101145.73
2018-05-07T00:15:15.992Z,101142.56
2018-05-07T00:16:18.487Z,101147.52
2018-05-07T00:17:20.986Z,101144.36
2018-05-07T00:18:23.478Z,101142.97
2018-05-07T00:19:25.966Z,101141.19
2018-05-07T00:20:28.492Z,101140.04
2018-05-07T00:21:30.980Z,101142.40
2018-05-07T00:22:33.560Z,101143.21
2018-05-07T00:23:36.001Z,101139.06
2018-05-07T00:24:38.585Z,101138.66
2018-05-07T00:25:41.074Z,101145.98
2018-05-07T00:26:43.579Z,101140.04
2018-05-07T00:27:46.099Z,101142.80
2018-05-07T00:28:48.659Z,101137.28
2018-05-07T00:29:51.220Z,101134.92
2018-05-07T00:30:53.724Z,101135.33
2018-05-07T00:31:56.243Z,101134.52
2018-05-07T00:32:58.759Z,101135.89
2018-05-07T00:34:01.267Z,101135.89
2018-05-07T00:35:03.823Z,101131.34
2018-05-07T00:36:06.313Z,101128.82
2018-05-07T00:37:08.811Z,101132.16
2018-05-07T00:38:11.358Z,101133.54
2018-05-07T00:39:13.838Z,101133.13
2018-05-07T00:40:16.314Z,101135.09
2018-05-07T00:41:18.814Z,101132.89
2018-05-07T00:42:21.281Z,101132.66
2018-05-07T00:43:23.765Z,101133.62
2018-05-07T00:44:26.289Z,101129.66
2018-05-07T00:45:28.767Z,101136.16
2018-05-07T00:46:31.258Z,101139.89
2018-05-07T00:47:33.767Z,101137.70
2018-05-07T00:48:36.261Z,101135.51
2018-05-07T00:49:38.748Z,101137.47
2018-05-07T00:50:41.232Z,101138.61
2018-05-07T00:51:43.754Z,101137.63
2018-05-07T00:52:46.256Z,101132.67
2018-05-07T00:53:48.770Z,101136.01
2018-05-07T00:55:03.174Z,101134.63
2018-05-07T00:56:05.669Z,101137.15
2018-05-07T00:57:08.184Z,101137.72
2018-05-07T00:58:10.672Z,101141.70
2018-05-07T00:59:13.160Z,101140.08
2018-05-07T01:00:15.645Z,101146.41
2018-05-07T01:01:18.129Z,101139.51
2018-05-07T01:02:20.653Z,101139.67
2018-05-07T01:03:23.123Z,101142.44
2018-05-07T01:04:25.628Z,101146.17
2018-05-07T01:05:28.132Z,101144.39
2018-05-07T01:06:30.598Z,101141.22
2018-05-07T01:07:33.098Z,101143.58
2018-05-07T01:08:35.598Z,101139.20
2018-05-07T01:09:38.066Z,101141.39
2018-05-07T01:10:40.568Z,101146.34
2018-05-07T01:11:43.068Z,101142.36
2018-05-07T01:12:45.652Z,101143.75
2018-05-07T01:13:48.141Z,101141.39
2018-05-07T01:14:50.687Z,101139.20
2018-05-07T01:15:53.175Z,101135.05
2018-05-07T01:16:55.661Z,101141.55
2018-05-07T01:17:58.169Z,101141.55
2018-05-07T01:19:00.667Z,101138.79
2018-05-07T01:20:03.142Z,101139.20
2018-05-07T01:21:05.606Z,101142.36
2018-05-07T01:22:08.087Z,101143.75
2018-05-07T01:23:10.627Z,101142.94
2018-05-07T01:24:13.112Z,101145.86
2018-05-07T01:25:15.601Z,101145.70
2018-05-07T01:26:18.103Z,101143.50
2018-05-07T01:27:20.592Z,101140.58
2018-05-07T01:28:23.107Z,101140.17
2018-05-07T01:29:25.611Z,101141.31
2018-05-07T01:30:28.097Z,101137.00
2018-05-07T01:31:30.592Z,101139.94
2018-05-07T01:32:33.079Z,101137.41
2018-05-07T01:33:35.566Z,101138.79
2018-05-07T01:34:38.050Z,101143.10
2018-05-07T01:35:40.532Z,101139.52
2018-05-07T01:36:43.025Z,101134.98
2018-05-07T01:37:45.494Z,101139.94
2018-05-07T01:38:47.995Z,101138.95
2018-05-07T01:39:50.484Z,101141.14
2018-05-07T01:40:53.082Z,101139.77
2018-05-07T01:41:55.569Z,101146.51
2018-05-07T01:42:58.071Z,101139.20
2018-05-07T01:44:00.581Z,101144.96
2018-05-07T01:45:03.065Z,101149.27
2018-05-07T01:46:05.553Z,101146.91
2018-05-07T01:47:08.040Z,101147.31
2018-05-07T01:48:10.532Z,101150.66
2018-05-07T01:49:13.203Z,101145.94
2018-05-07T01:50:15.689Z,101144.55
2018-05-07T01:51:18.189Z,101143.01
2018-05-07T01:52:20.736Z,101145.53
2018-05-07T01:53:23.207Z,101148.30
2018-05-07T01:54:25.755Z,101140.81
2018-05-07T01:55:28.292Z,101139.03
2018-05-07T01:56:30.788Z,101134.48
2018-05-07T01:57:33.333Z,101136.27
2018-05-07T01:58:35.817Z,101138.45
2018-05-07T01:59:38.302Z,101134.48
2018-05-07T02:00:40.799Z,101129.36
2018-05-07T02:01:43.303Z,101132.69
2018-05-07T02:02:45.792Z,101130.33
2018-05-07T02:03:48.295Z,101133.91
2018-05-07T02:04:50.791Z,101135.29
2018-05-07T02:05:53.307Z,101134.48
2018-05-07T02:06:55.811Z,101132.13
2018-05-07T02:07:58.312Z,101132.13
2018-05-07T02:09:00.796Z,101130.58
2018-05-07T02:10:03.322Z,101136.10
2018-05-07T02:11:05.827Z,101133.34
2018-05-07T02:12:08.317Z,101132.13
2018-05-07T02:13:10.815Z,101135.70
2018-05-07T02:14:13.300Z,101129.77
2018-05-07T02:15:15.831Z,101130.00
2018-05-07T02:16:18.301Z,101130.17
2018-05-07T02:17:20.782Z,101124.07
2018-05-07T02:18:23.264Z,101127.24
2018-05-07T02:19:25.787Z,101130.00
2018-05-07T02:20:28.266Z,101127.00
2018-05-07T02:21:30.735Z,101120.50
2018-05-07T02:22:33.251Z,101128.38
2018-05-07T02:23:35.737Z,101125.05
2018-05-07T02:24:38.240Z,101125.86
2018-05-07T02:25:40.725Z,101129.77
2018-05-07T02:26:43.291Z,101129.19
2018-05-07T02:27:45.766Z,101133.09
2018-05-07T02:28:48.293Z,101127.00
2018-05-07T02:29:50.781Z,101129.77
2018-05-07T02:30:53.274Z,101129.36
2018-05-07T02:31:55.761Z,101125.21
2018-05-07T02:32:58.245Z,101127.00
2018-05-07T02:34:00.729Z,101129.93
2018-05-07T02:35:03.221Z,101132.69
2018-05-07T02:36:05.715Z,101132.94
2018-05-07T02:37:08.188Z,101135.70
2018-05-07T02:38:10.676Z,101134.08
2018-05-07T02:39:13.174Z,101130.33
2018-05-07T02:40:15.842Z,101136.67
2018-05-07T02:41:18.402Z,101136.27
2018-05-07T02:42:20.889Z,101132.29
2018-05-07T02:43:23.376Z,101135.86
2018-05-07T02:44:25.886Z,101135.29
2018-05-07T02:45:28.399Z,101130.73
2018-05-07T02:46:30.905Z,101131.55
2018-05-07T02:47:33.397Z,101133.17
2018-05-07T02:48:35.903Z,101137.31
2018-05-07T02:49:38.392Z,101135.36
2018-05-07T02:50:40.876Z,101132.03
2018-05-07T02:51:43.385Z,101131.05
2018-05-07T02:52:45.899Z,101132.84
2018-05-07T02:53:48.392Z,101124.95
2018-05-07T02:54:50.883Z,101130.48
2018-05-07T02:55:53.424Z,101127.15
2018-05-07T02:56:55.960Z,101130.31
2018-05-07T02:57:58.464Z,101128.53
2018-05-07T02:59:00.939Z,101132.10
2018-05-07T03:00:03.420Z,101131.53
2018-05-07T03:01:05.923Z,101129.34
2018-05-07T03:02:08.438Z,101130.15
2018-05-07T03:03:10.907Z,101128.36
2018-05-07T03:04:13.727Z,101127.80
2018-05-07T03:05:16.199Z,101128.20
2018-05-07T03:06:18.689Z,101130.55
2018-05-07T03:07:21.197Z,101127.39
2018-05-07T03:08:23.668Z,101131.36
2018-05-07T03:09:26.166Z,101126.25
2018-05-07T03:10:28.650Z,101132.41
2018-05-07T03:11:31.160Z,101128.67
2018-05-07T03:12:33.679Z,101132.25
2018-05-07T03:13:36.200Z,101122.98
2018-05-07T03:14:38.674Z,101123.15
2018-05-07T03:15:41.173Z,101127.12
2018-05-07T03:16:43.645Z,101121.03
2018-05-07T03:17:46.148Z,101122.25
2018-05-07T03:18:48.634Z,101124.61
2018-05-07T03:19:51.121Z,101112.58
2018-05-07T03:20:53.607Z,101125.58
2018-05-07T03:21:56.089Z,101118.50
2018-05-07T03:22:58.612Z,101108.02
2018-05-07T03:24:01.110Z,101115.50
2018-05-07T03:25:03.601Z,101117.12
2018-05-07T03:26:06.070Z,101111.59
2018-05-07T03:27:08.571Z,101115.50
2018-05-07T03:28:11.058Z,101108.02
2018-05-07T03:29:13.527Z,101111.93
2018-05-07T03:30:15.995Z,101107.78
2018-05-07T03:31:18.477Z,101110.31
2018-05-07T03:32:20.970Z,101112.26
2018-05-07T03:33:23.468Z,101110.07
2018-05-07T03:34:25.956Z,101107.87
2018-05-07T03:35:28.437Z,101102.11
2018-05-07T03:36:30.970Z,101112.36
2018-05-07T03:37:33.476Z,101110.97
2018-05-07T03:38:35.959Z,101110.33
2018-05-07T03:39:38.488Z,101114.06
2018-05-07T03:40:41.048Z,101110.49
2018-05-07T03:41:43.616Z,101101.23
2018-05-07T03:42:46.086Z,101103.75
2018-05-07T03:43:48.627Z,101094.32
2018-05-07T03:44:51.133Z,101093.51
2018-05-07T03:45:53.621Z,101093.51
2018-05-07T03:46:56.184Z,101090.34
2018-05-07T03:47:58.650Z,101091.16
2018-05-07T03:49:01.153Z,101096.27
2018-05-07T03:50:03.661Z,101090.75
2018-05-07T03:51:06.168Z,101094.08
2018-05-07T03:52:08.661Z,101091.89
2018-05-07T03:53:11.157Z,101090.91
2018-05-07T03:54:13.665Z,101091.89
2018-05-07T03:55:16.172Z,101089.70
2018-05-07T03:56:18.678Z,101086.94
2018-05-07T03:57:21.179Z,101090.27
2018-05-07T03:58:23.690Z,101089.86
2018-05-07T03:59:26.218Z,101087.10
2018-05-07T04:00:28.724Z,101087.34
2018-05-07T04:01:31.199Z,101085.15
2018-05-07T04:02:33.788Z,101082.95
2018-05-07T04:03:36.282Z,101081.58
2018-05-07T04:04:38.802Z,101081.98
2018-05-07T04:05:41.363Z,101086.70
2018-05-07T04:06:43.842Z,101080.36
2018-05-07T04:07:46.384Z,101080.77
2018-05-07T04:08:48.877Z,101078.41
2018-05-07T04:09:51.362Z,101078.98
2018-05-07T04:10:53.852Z,101079.95
2018-05-07T04:11:56.322Z,101074.42
2018-05-07T04:12:58.823Z,101079.38
2018-05-07T04:14:01.306Z,101078.98
2018-05-07T04:15:03.808Z,101081.74
2018-05-07T04:16:06.296Z,101082.55
2018-05-07T04:17:20.490Z,101080.36
2018-05-07T04:18:34.702Z,101082.31
2018-05-07T04:19:49.253Z,101077.77
2018-05-07T04:21:03.596Z,101076.95
2018-05-07T04:22:17.924Z,101080.69
2018-05-07T04:23:32.307Z,101080.13
2018-05-07T04:24:34.811Z,101081.64
2018-05-07T04:25:37.302Z,101075.16
2018-05-07T04:26:39.788Z,101084.00
2018-05-07T04:27:42.258Z,101081.09
2018-05-07T04:28:44.744Z,101085.38
2018-05-07T04:29:47.234Z,101081.23
2018-05-07T04:30:49.706Z,101078.47
2018-05-07T04:31:52.228Z,101084.00
2018-05-07T04:32:54.788Z,101082.20
2018-05-07T04:33:57.351Z,101083.59
2018-05-07T04:34:59.846Z,101079.85
2018-05-07T04:36:02.333Z,101077.66
2018-05-07T04:37:04.823Z,101080.26
2018-05-07T04:38:07.317Z,101079.04
2018-05-07T04:39:09.815Z,101084.84
2018-05-07T04:40:12.338Z,101077.49
2018-05-07T04:41:14.842Z,101083.59
2018-05-07T04:42:17.336Z,101083.19
2018-05-07T04:43:19.900Z,101082.20
2018-05-07T04:44:22.306Z,101082.20
2018-05-07T04:45:24.813Z,101082.20
2018-05-07T04:46:27.355Z,101085.38
2018-05-07T04:47:29.909Z,101084.00
2018-05-07T04:48:32.397Z,101080.26
2018-05-07T04:49:34.891Z,101079.61
2018-05-07T04:50:37.406Z,101081.80
2018-05-07T04:51:39.949Z,101082.78
2018-05-07T04:52:42.508Z,101081.40
2018-05-07T04:53:45.067Z,101081.16
2018-05-07T04:54:47.546Z,101079.61
2018-05-07T04:55:50.092Z,101083.19
2018-05-07T04:56:52.583Z,101086.22
2018-05-07T04:57:55.073Z,101085.38
2018-05-07T04:58:57.577Z,101086.35
2018-05-07T05:00:00.059Z,101078.64
2018-05-07T05:01:02.577Z,101083.92
2018-05-07T05:02:05.064Z,101084.90
2018-05-07T05:03:07.567Z,101082.70
2018-05-07T05:04:10.038Z,101081.25
2018-05-07T05:05:12.523Z,101078.89
2018-05-07T05:06:15.106Z,101081.09
2018-05-07T05:07:17.756Z,101076.30
2018-05-07T05:08:20.127Z,101082.97
2018-05-07T05:09:22.612Z,101088.25
2018-05-07T05:10:25.101Z,101086.88
2018-05-07T05:11:27.668Z,101083.88
2018-05-07T05:12:30.226Z,101094.27
2018-05-07T05:13:32.712Z,101095.25
2018-05-07T05:14:35.191Z,101090.87
2018-05-07T05:15:37.701Z,101090.36
2018-05-07T05:16:40.222Z,101093.86
2018-05-07T05:17:42.703Z,101090.28
2018-05-07T05:18:45.171Z,101091.73
2018-05-07T05:19:47.709Z,101092.46
2018-05-07T05:20:50.289Z,101093.20
2018-05-07T05:21:52.797Z,101092.22
2018-05-07T05:22:55.422Z,101089.05
2018-05-07T05:23:57.983Z,101092.55
2018-05-07T05:25:00.504Z,101089.62
2018-05-07T05:26:03.100Z,101087.44
2018-05-07T05:27:05.661Z,101095.31
2018-05-07T05:28:08.168Z,101092.96
2018-05-07T05:29:10.665Z,101086.86
2018-05-07T05:30:13.157Z,101091.01
2018-05-07T05:31:15.640Z,101087.44
2018-05-07T05:32:18.156Z,101088.24
2018-05-07T05:33:20.652Z,101094.34
2018-05-07T05:34:23.151Z,101089.22
2018-05-07T05:35:25.645Z,101089.62
2018-05-07T05:36:28.121Z,101088.81
2018-05-07T05:37:30.603Z,101089.39
2018-05-07T05:38:33.096Z,101094.34
2018-05-07T05:39:35.607Z,101091.17
2018-05-07T05:40:38.108Z,101088.81
2018-05-07T05:41:40.614Z,101088.58
2018-05-07T05:42:43.151Z,101087.59
2018-05-07T05:43:45.793Z,101086.62
2018-05-07T05:44:48.234Z,101087.03
2018-05-07T05:45:50.728Z,101080.29
2018-05-07T05:46:53.227Z,101083.45
2018-05-07T05:47:55.734Z,101081.10
2018-05-07T05:48:58.220Z,101084.27
2018-05-07T05:50:00.809Z,101081.67
2018-05-07T05:51:03.314Z,101081.51
2018-05-07T05:52:05.801Z,101079.31
2018-05-07T05:53:08.309Z,101082.24
2018-05-07T05:54:10.803Z,101085.41
2018-05-07T05:55:13.293Z,101083.63
2018-05-07T05:56:15.856Z,101084.44
2018-05-07T05:57:18.308Z,101084.84
2018-05-07T05:58:20.806Z,101086.39
2018-05-07T05:59:23.299Z,101084.59
2018-05-07T06:00:25.788Z,101084.44
2018-05-07T06:01:28.315Z,101085.00
2018-05-07T06:02:30.910Z,101080.45
2018-05-07T06:03:33.410Z,101077.69
2018-05-07T06:04:35.903Z,101085.00
2018-05-07T06:05:38.483Z,101080.45
2018-05-07T06:06:41.002Z,101088.34
2018-05-07T06:07:43.493Z,101078.67
2018-05-07T06:08:46.004Z,101088.74
2018-05-07T06:09:48.516Z,101084.19
2018-05-07T06:10:50.985Z,101086.55
2018-05-07T06:11:53.535Z,101088.50
2018-05-07T06:12:56.092Z,101083.79
2018-05-07T06:13:58.654Z,101090.29
2018-05-07T06:15:01.234Z,101087.53
2018-05-07T06:16:03.674Z,101085.58
2018-05-07T06:17:06.158Z,101088.50
2018-05-07T06:18:08.691Z,101090.70
2018-05-07T06:19:11.200Z,101087.12
2018-05-07T06:20:13.708Z,101087.12
2018-05-07T06:21:16.251Z,101089.88
2018-05-07T06:22:18.712Z,101086.31
2018-05-07T06:23:21.211Z,101089.88
2018-05-07T06:24:23.733Z,101084.36
2018-05-07T06:25:26.217Z,101091.43
2018-05-07T06:26:28.704Z,101085.91
2018-05-07T06:27:31.211Z,101082.73
2018-05-07T06:28:33.717Z,101078.59
2018-05-07T06:29:36.263Z,101082.73
2018-05-07T06:30:38.994Z,101085.50
2018-05-07T06:31:41.469Z,101089.64
2018-05-07T06:32:43.949Z,101087.28
2018-05-07T06:33:46.437Z,101094.19
2018-05-07T06:34:48.937Z,101085.27
2018-05-07T06:35:51.448Z,101087.86
2018-05-07T06:36:53.980Z,101084.69
2018-05-07T06:37:56.544Z,101087.45
2018-05-07T06:38:59.101Z,101089.23
2018-05-07T06:40:01.619Z,101083.31
2018-05-07T06:41:04.124Z,101087.86
2018-05-07T06:42:06.613Z,101085.09
2018-05-07T06:43:09.104Z,101084.69
2018-05-07T06:44:11.609Z,101084.28
2018-05-07T06:45:14.153Z,101078.77
2018-05-07T06:46:16.666Z,101080.71
2018-05-07T06:47:19.156Z,101074.22
2018-05-07T06:48:21.645Z,101079.73
2018-05-07T06:49:24.128Z,101079.33
2018-05-07T06:50:26.614Z,101082.91
2018-05-07T06:51:29.174Z,101082.50
2018-05-07T06:52:31.683Z,101080.14
2018-05-07T06:53:34.225Z,101083.88
2018-05-07T06:54:36.712Z,101080.14
2018-05-07T06:55:39.200Z,101082.33
2018-05-07T06:56:41.709Z,101083.31
2018-05-07T06:57:44.186Z,101080.55
2018-05-07T06:58:46.676Z,101078.92
2018-05-07T06:59:49.165Z,101076.00
2018-05-07T07:00:51.687Z,101083.88
2018-05-07T07:01:54.173Z,101078.77
2018-05-07T07:02:56.806Z,101080.30
2018-05-07T07:03:59.215Z,101079.33
2018-05-07T07:05:01.877Z,101078.36
2018-05-07T07:06:04.379Z,101081.69
2018-05-07T07:07:06.846Z,101082.09
2018-05-07T07:08:09.426Z,101077.95
2018-05-07T07:09:11.875Z,101079.73
2018-05-07T07:10:14.381Z,101088.42
2018-05-07T07:11:16.900Z,101083.88
2018-05-07T07:12:19.389Z,101083.47
2018-05-07T07:13:21.864Z,101085.27
2018-05-07T07:14:24.353Z,101081.52
2018-05-07T07:15:26.827Z,101084.69
2018-05-07T07:16:29.420Z,101080.71
2018-05-07T07:17:31.826Z,101083.47
2018-05-07T07:18:34.336Z,101075.76
2018-05-07T07:19:36.806Z,101077.95
2018-05-07T07:20:39.282Z,101081.92
2018-05-07T07:21:41.804Z,101082.91
2018-05-07T07:22:44.288Z,101079.73
2018-05-07T07:23:46.777Z,101071.86
2018-05-07T07:24:49.260Z,101076.98
2018-05-07T07:25:51.771Z,101075.02
2018-05-07T07:26:54.270Z,101073.81
2018-05-07T07:27:56.847Z,101070.07
2018-05-07T07:28:59.265Z,101071.86
2018-05-07T07:30:01.743Z,101068.12
2018-05-07T07:31:04.231Z,101072.27
2018-05-07T07:32:06.745Z,101071.86
2018-05-07T07:33:09.235Z,101074.05
2018-05-07T07:34:11.759Z,101076.81
2018-05-07T07:35:14.285Z,101075.84
2018-05-07T07:36:16.784Z,101071.86
2018-05-07T07:37:19.293Z,101073.23
2018-05-07T07:38:21.781Z,101074.45
2018-05-07T07:39:24.408Z,101071.69
2018-05-07T07:40:26.880Z,101077.05
2018-05-07T07:41:29.480Z,101074.28
2018-05-07T07:42:31.992Z,101077.45
2018-05-07T07:43:34.490Z,101069.73
2018-05-07T07:44:37.002Z,101070.14
2018-05-07T07:45:39.488Z,101073.31
2018-05-07T07:46:41.974Z,101075.67
2018-05-07T07:47:44.493Z,101076.08
2018-05-07T07:48:46.977Z,101075.67
2018-05-07T07:49:49.465Z,101069.00
2018-05-07T07:50:51.973Z,101074.13
2018-05-07T07:51:54.466Z,101075.50
2018-05-07T07:52:56.978Z,101072.17
2018-05-07T07:53:59.454Z,101076.31
2018-05-07T07:55:02.023Z,101074.53
2018-05-07T07:56:04.502Z,101072.58
2018-05-07T07:57:07.032Z,101070.38
2018-05-07T07:58:09.581Z,101070.22
2018-05-07T07:59:12.065Z,101069.24
2018-05-07T08:00:14.561Z,101071.03
2018-05-07T08:01:17.050Z,101066.48
2018-05-07T08:02:19.548Z,101068.67
2018-05-07T08:03:22.067Z,101074.60
2018-05-07T08:04:24.575Z,101077.94
2018-05-07T08:05:27.135Z,101074.60
2018-05-07T08:06:29.696Z,101066.31
2018-05-07T08:07:32.183Z,101074.60
2018-05-07T08:08:34.703Z,101069.48
2018-05-07T08:09:37.225Z,101069.89
2018-05-07T08:10:39.725Z,101070.30
2018-05-07T08:11:42.211Z,101063.95
2018-05-07T08:12:44.684Z,101064.36
2018-05-07T08:13:47.203Z,101059.25
2018-05-07T08:14:49.711Z,101063.80
2018-05-07T08:15:52.212Z,101063.63
2018-05-07T08:16:54.689Z,101063.22
2018-05-07T08:17:57.191Z,101064.03
2018-05-07T08:18:59.700Z,101053.80
2018-05-07T08:20:02.182Z,101058.51
2018-05-07T08:21:04.684Z,101060.70
2018-05-07T08:22:07.482Z,101051.84
2018-05-07T08:23:09.950Z,101055.98
2018-05-07T08:24:12.475Z,101051.44
2018-05-07T08:25:14.980Z,101060.13
2018-05-07T08:26:17.546Z,101055.81
2018-05-07T08:27:20.106Z,101060.37
2018-05-07T08:28:22.663Z,101059.39
2018-05-07T08:29:25.154Z,101056.05
2018-05-07T08:30:27.693Z,101054.27
2018-05-07T08:31:30.129Z,101057.84
2018-05-07T08:32:32.704Z,101056.05
2018-05-07T08:33:35.219Z,101056.30
2018-05-07T08:34:37.725Z,101059.06
2018-05-07T08:35:40.198Z,101055.89
2018-05-07T08:36:42.707Z,101056.70
2018-05-07T08:37:45.230Z,101057.14
2018-05-07T08:38:47.747Z,101052.99
2018-05-07T08:39:50.279Z,101052.42
2018-05-07T08:40:52.763Z,101057.55
2018-05-07T08:41:55.234Z,101055.19
2018-05-07T08:42:57.728Z,101053.23
2018-05-07T08:44:00.246Z,101054.61
2018-05-07T08:45:02.750Z,101057.62
2018-05-07T08:46:05.271Z,101055.42
2018-05-07T08:47:07.775Z,101051.95
2018-05-07T08:48:10.360Z,101058.02
2018-05-07T08:49:13.250Z,101050.98
2018-05-07T08:50:15.742Z,101050.14
2018-05-07T08:51:18.269Z,101048.11
2018-05-07T08:52:20.777Z,101051.95
2018-05-07T08:53:23.257Z,101046.27
2018-05-07T08:54:25.734Z,101051.63
2018-05-07T08:55:28.237Z,101054.55
2018-05-07T08:56:30.720Z,101041.14
2018-05-07T08:57:33.219Z,101040.17
2018-05-07T08:58:35.704Z,101050.64
2018-05-07T08:59:38.211Z,101045.94
2018-05-07T09:00:40.732Z,101041.79
2018-05-07T09:01:43.228Z,101039.43
2018-05-07T09:02:45.716Z,101041.22
2018-05-07T09:03:48.210Z,101042.59
2018-05-07T09:04:50.720Z,101032.36
2018-05-07T09:05:53.210Z,101041.63
2018-05-07T09:06:55.748Z,101036.50
2018-05-07T09:07:58.304Z,101032.36
2018-05-07T09:09:00.751Z,101030.00
2018-05-07T09:10:03.244Z,101033.16
2018-05-07T09:11:05.750Z,101027.23
2018-05-07T09:12:08.306Z,101030.23
2018-05-07T09:13:10.811Z,101027.48
2018-05-07T09:14:13.345Z,101028.28
2018-05-07T09:15:15.828Z,101030.07
2018-05-07T09:16:18.375Z,101027.72
2018-05-07T09:17:20.849Z,101031.45
2018-05-07T09:18:23.341Z,101028.52
2018-05-07T09:19:25.818Z,101026.17
2018-05-07T09:20:28.293Z,101027.55
2018-05-07T09:21:30.783Z,101027.95
2018-05-07T09:22:33.250Z,101026.57
2018-05-07T09:23:35.744Z,101026.81
2018-05-07T09:24:38.294Z,101025.42
2018-05-07T09:25:40.723Z,101015.36
2018-05-07T09:26:43.237Z,101018.35
2018-05-07T09:27:45.729Z,101013.80
2018-05-07T09:28:48.235Z,101020.14
2018-05-07T09:29:50.743Z,101013.23
2018-05-07T09:30:53.214Z,101012.26
2018-05-07T09:31:55.739Z,101014.45
2018-05-07T09:32:58.253Z,101008.35
2018-05-07T09:34:00.737Z,101010.14
2018-05-07T09:35:03.336Z,101003.63
2018-05-07T09:36:05.825Z,101004.20
2018-05-07T09:37:08.425Z,101008.35
2018-05-07T09:38:10.866Z,101003.63
2018-05-07T09:39:13.369Z,101009.56
2018-05-07T09:40:15.885Z,101005.83
2018-05-07T09:41:18.381Z,101008.86
2018-05-07T09:42:20.899Z,101004.71
2018-05-07T09:43:23.403Z,101009.27
2018-05-07T09:44:25.873Z,101006.91
2018-05-07T09:45:28.373Z,101001.95
2018-05-07T09:46:30.842Z,101000.41
2018-05-07T09:47:33.346Z,100998.05
2018-05-07T09:48:35.836Z,101005.36
2018-05-07T09:49:38.334Z,101002.02
2018-05-07T09:50:40.821Z,100997.47
2018-05-07T09:51:43.322Z,100996.90
2018-05-07T09:52:45.829Z,100991.38
2018-05-07T09:53:48.325Z,100991.38
2018-05-07T09:54:50.795Z,100990.97
2018-05-07T09:55:53.276Z,100989.02
2018-05-07T09:56:56.762Z,100994.38
2018-05-07T09:58:05.006Z,100985.27
2018-05-07T09:59:07.495Z,100993.39
2018-05-07T10:00:09.970Z,100988.27
2018-05-07T10:01:12.461Z,100987.30
2018-05-07T10:02:14.930Z,100989.89
2018-05-07T10:03:17.436Z,100987.13
2018-05-07T10:04:19.929Z,100984.77
2018-05-07T10:05:22.418Z,100980.22
2018-05-07T10:06:24.891Z,100981.60
2018-05-07T10:07:27.378Z,100979.81
2018-05-07T10:08:29.960Z,100978.67
2018-05-07T10:09:32.408Z,100982.81
2018-05-07T10:10:34.896Z,100980.45
2018-05-07T10:11:37.398Z,100979.88
2018-05-07T10:12:39.905Z,100981.67
2018-05-07T10:13:42.431Z,100980.70
2018-05-07T10:14:44.921Z,100977.53
2018-05-07T10:15:47.413Z,100979.72
2018-05-07T10:16:49.919Z,100970.05
2018-05-07T10:17:52.391Z,100974.59
2018-05-07T10:18:54.900Z,100967.12
2018-05-07T10:19:57.406Z,100971.27
2018-05-07T10:20:59.951Z,100973.05
2018-05-07T10:22:02.527Z,100966.55
2018-05-07T10:23:05.018Z,100966.95
2018-05-07T10:24:07.552Z,100965.73
2018-05-07T10:25:10.109Z,100969.71
2018-05-07T10:26:12.614Z,100968.73
2018-05-07T10:27:15.107Z,100975.64
2018-05-07T10:28:17.614Z,100971.33
2018-05-07T10:29:20.128Z,100967.19
2018-05-07T10:30:22.613Z,100970.36
2018-05-07T10:31:25.094Z,100965.23
2018-05-07T10:32:27.625Z,100966.04
2018-05-07T10:33:30.102Z,100963.69
2018-05-07T10:34:32.639Z,100966.44
2018-05-07T10:35:35.114Z,100964.25
2018-05-07T10:36:37.605Z,100968.80
2018-05-07T10:37:40.092Z,100966.84
2018-05-07T10:38:42.581Z,100964.09
2018-05-07T10:39:45.089Z,100960.34
2018-05-07T10:40:47.562Z,100955.45
2018-05-07T10:41:50.052Z,100950.50
2018-05-07T10:42:52.603Z,100959.20
2018-05-07T10:43:55.101Z,100953.27
2018-05-07T10:44:57.625Z,100951.31
2018-05-07T10:46:00.108Z,100955.86
2018-05-07T10:47:02.579Z,100951.55
2018-05-07T10:48:05.800Z,100950.74
2018-05-07T10:49:08.325Z,100957.08
2018-05-07T10:50:10.883Z,100948.78
2018-05-07T10:51:13.369Z,100942.69
2018-05-07T10:52:16.365Z,100947.23
2018-05-07T10:53:18.848Z,100948.05
2018-05-07T10:54:21.351Z,100940.73
2018-05-07T10:55:23.839Z,100938.37
2018-05-07T10:56:26.302Z,100940.59
2018-05-07T10:57:28.832Z,100937.42
2018-05-07T10:58:31.317Z,100936.59
2018-05-07T10:59:33.813Z,100940.73
2018-05-07T11:00:36.327Z,100937.26
2018-05-07T11:01:38.879Z,100931.90
2018-05-07T11:02:41.351Z,100933.11
2018-05-07T11:03:43.908Z,100932.70
2018-05-07T11:04:46.400Z,100933.52
2018-05-07T11:05:48.923Z,100928.97
2018-05-07T11:06:51.483Z,100932.14
2018-05-07T11:07:53.992Z,100927.42
2018-05-07T11:08:56.489Z,100924.66
2018-05-07T11:09:58.997Z,100925.05
2018-05-07T11:11:01.529Z,100921.31
2018-05-07T11:12:04.046Z,100916.77
2018-05-07T11:13:06.621Z,100916.77
2018-05-07T11:14:09.105Z,100917.17
2018-05-07T11:15:11.590Z,100918.55
2018-05-07T11:16:14.089Z,100913.84
2018-05-07T11:17:16.596Z,100917.58
2018-05-07T11:18:19.070Z,100909.69
2018-05-07T11:19:21.551Z,100914.64
2018-05-07T11:20:24.056Z,100916.02
2018-05-07T11:21:26.613Z,100915.05
2018-05-07T11:22:29.169Z,100917.41
2018-05-07T11:23:31.732Z,100915.05
2018-05-07T11:24:34.249Z,100910.91
2018-05-07T11:25:36.768Z,100918.22
2018-05-07T11:26:39.251Z,100915.86
2018-05-07T11:27:41.746Z,100911.30
2018-05-07T11:28:44.218Z,100908.95
2018-05-07T11:29:46.773Z,100913.50
2018-05-07T11:30:49.260Z,100903.83
2018-05-07T11:31:51.790Z,100900.08
2018-05-07T11:32:54.263Z,100898.70
2018-05-07T11:33:56.749Z,100901.47
2018-05-07T11:34:59.265Z,100903.66
2018-05-07T11:36:01.767Z,100903.66
2018-05-07T11:37:04.279Z,100900.08
2018-05-07T11:38:06.764Z,100895.13
2018-05-07T11:39:09.357Z,100899.51
2018-05-07T11:40:11.862Z,100899.51
2018-05-07T11:41:14.423Z,100900.31
2018-05-07T11:42:16.985Z,100899.51
2018-05-07T11:43:19.459Z,100897.55
2018-05-07T11:44:21.945Z,100893.98
2018-05-07T11:45:24.447Z,100892.26
2018-05-07T11:46:26.938Z,100887.71
2018-05-07T11:47:29.538Z,100887.71
2018-05-07T11:48:31.999Z,100890.07
2018-05-07T11:49:34.503Z,100886.73
2018-05-07T11:50:36.992Z,100888.11
2018-05-07T11:51:39.476Z,100892.84
2018-05-07T11:52:41.982Z,100892.26
2018-05-07T11:53:44.468Z,100887.71
2018-05-07T11:54:46.975Z,100882.99